Maldives Meteorological Service

TAFS

Station TAF
VRMM
VRMM 172300Z 1800/1906 25008KT 9999 FEW018 TEMPO 1800/1806 6000 –SHRA FEW018CB=
VRMH
VRMH 172300Z 1800/1824 23006KT 9999 FEW018 TEMPO 1802/1808 6000 –SHRA FEW018CB=
VRMK
VRMK 172300Z 1800/1824 24007KT 9999 FEW018TCU TEMPO 1800/1806 5000 –TSRA FEW017CB=
VRMT
VRMT 172300Z 1800/1824 28010KT 9999 FEW018TCU TEMPO 1800/1806 5000 –TSRA FEW017CB=
VRMG
VRMG 172300Z 1800/1906 29009KT 9999 FEW018 TEMPO 1801/1807 6000 –SHRA FEW018CB=